createdAt,value
2017-09-24T04:37:53.750Z,2
2017-09-24T04:45:30.892Z,5
2017-09-24T04:49:03.605Z,8
2017-09-24T04:51:05.384Z,10
2017-09-24T04:52:37.178Z,13
2017-09-24T04:53:38.020Z,15
2017-09-24T04:54:08.049Z,17
2017-09-24T04:54:38.964Z,20
2017-09-24T04:55:09.025Z,22
2017-09-24T04:55:39.815Z,25
2017-09-24T04:56:09.907Z,30
2017-09-24T04:56:40.720Z,32
2017-09-24T04:57:10.755Z,37
2017-09-24T04:57:41.677Z,43
2017-09-24T04:58:11.697Z,45
2017-09-24T04:58:42.504Z,50
2017-09-24T04:59:12.596Z,55
2017-09-24T04:59:43.421Z,60
2017-09-24T05:00:13.487Z,62
2017-09-24T05:00:44.305Z,67
2017-09-24T05:01:14.356Z,73
2017-09-24T05:01:45.275Z,77
2017-09-24T05:02:15.284Z,80
2017-09-24T05:02:46.159Z,88
2017-09-24T05:03:16.167Z,92
2017-09-24T05:03:47.066Z,98
2017-09-24T05:04:17.021Z,103
2017-09-24T05:04:47.922Z,110
2017-09-24T05:05:17.961Z,118
2017-09-24T05:05:48.831Z,122
2017-09-24T05:06:18.855Z,130
2017-09-24T05:06:49.697Z,137
2017-09-24T05:07:19.745Z,142
2017-09-24T05:07:50.599Z,150
2017-09-24T05:08:20.672Z,155
2017-09-24T05:08:51.502Z,160
2017-09-24T05:09:21.545Z,165
2017-09-24T05:09:52.463Z,172
2017-09-24T05:10:22.447Z,178
2017-09-24T05:10:53.314Z,185
2017-09-24T05:11:23.374Z,190
2017-09-24T05:11:54.238Z,195
2017-09-24T05:12:24.223Z,200
2017-09-24T05:12:55.125Z,205
2017-09-24T05:13:55.982Z,208
2017-09-24T05:14:26.008Z,210
2017-09-24T05:15:26.928Z,212
2017-09-24T05:16:27.811Z,215
2017-09-24T05:16:58.710Z,218
2017-09-24T05:17:28.699Z,220
2017-09-24T05:17:59.592Z,223
2017-09-24T05:18:29.682Z,227
2017-09-24T05:19:00.763Z,233
2017-09-24T05:19:30.525Z,240
2017-09-24T05:20:01.366Z,247
2017-09-24T05:20:31.447Z,255
2017-09-24T05:21:02.266Z,265
2017-09-24T05:21:32.342Z,272
2017-09-24T05:22:03.206Z,283
2017-09-24T05:22:33.274Z,290
2017-09-24T05:23:04.064Z,300
2017-09-24T05:23:34.165Z,310
2017-09-24T05:24:05.016Z,317
2017-09-24T05:24:34.992Z,325
2017-09-24T05:25:05.934Z,332
2017-09-24T05:25:35.945Z,340
2017-09-24T05:26:06.832Z,345
2017-09-24T05:26:36.789Z,350
2017-09-24T05:27:07.697Z,352
2017-09-24T05:27:37.693Z,358
2017-09-24T05:29:39.590Z,355
2017-09-24T05:30:10.415Z,352
2017-09-24T05:30:40.425Z,347
2017-09-24T05:31:11.321Z,345
2017-09-24T05:31:41.340Z,343
2017-09-24T05:32:12.228Z,340
2017-09-24T05:32:42.228Z,337
2017-09-24T05:33:43.170Z,340
2017-09-24T05:35:44.888Z,345
2017-09-24T05:36:15.816Z,352
2017-09-24T05:36:45.850Z,362
2017-09-24T05:37:16.708Z,375
2017-09-24T05:37:46.791Z,383
2017-09-24T05:38:17.634Z,388
2017-09-24T05:38:47.626Z,392
2017-09-24T05:39:18.510Z,398
2017-09-24T05:39:48.562Z,403
2017-09-24T05:41:20.327Z,400
2017-09-24T05:41:50.345Z,395
2017-09-24T05:42:21.246Z,392
2017-09-24T05:42:51.243Z,390
2017-09-24T05:43:52.150Z,395
2017-09-24T05:44:22.952Z,403
2017-09-24T05:44:52.991Z,412
2017-09-24T05:45:23.849Z,428
2017-09-24T05:45:53.943Z,442
2017-09-24T05:46:24.814Z,463
2017-09-24T05:46:54.845Z,485
2017-09-24T05:47:25.667Z,520
2017-09-24T05:47:55.738Z,560
2017-09-24T05:48:26.607Z,602
2017-09-24T05:48:56.648Z,640
2017-09-24T05:49:27.524Z,675
2017-09-24T05:49:57.533Z,705
2017-09-24T05:50:28.395Z,728
2017-09-24T05:50:58.373Z,745
2017-09-24T05:51:29.278Z,758
2017-09-24T05:51:59.290Z,767
2017-09-24T05:52:30.199Z,773
2017-09-24T05:53:00.245Z,775
2017-09-24T05:53:31.104Z,770
2017-09-24T05:54:01.122Z,765
2017-09-24T05:54:31.961Z,758
2017-09-24T05:55:02.007Z,752
2017-09-24T05:55:32.883Z,755
2017-09-24T05:56:02.948Z,763
2017-09-24T05:56:33.792Z,780
2017-09-24T05:57:03.826Z,800
2017-09-24T05:57:34.648Z,817
2017-09-24T05:58:04.697Z,835
2017-09-24T05:58:35.552Z,848
2017-09-24T05:59:05.649Z,857
2017-09-24T05:59:36.513Z,860
2017-09-24T06:00:06.545Z,863
2017-09-24T06:00:37.398Z,860
2017-09-24T06:01:07.396Z,855
2017-09-24T06:01:38.283Z,868
2017-09-24T06:02:08.312Z,917
2017-09-24T06:02:39.187Z,998
2017-09-24T06:03:09.181Z,1093
2017-09-24T06:03:40.097Z,1180
2017-09-24T06:04:10.088Z,1260
2017-09-24T06:04:40.950Z,1337
2017-09-24T06:05:10.965Z,1405
2017-09-24T06:05:41.901Z,1457
2017-09-24T06:06:11.923Z,1493
2017-09-24T06:06:42.838Z,1515
2017-09-24T06:07:12.813Z,1530
2017-09-24T06:07:43.680Z,1540
2017-09-24T06:08:13.670Z,1538
2017-09-24T06:08:44.619Z,1528
2017-09-24T06:09:14.628Z,1510
2017-09-24T06:09:45.502Z,1480
2017-09-24T06:10:15.491Z,1440
2017-09-24T06:10:46.382Z,1397
2017-09-24T06:11:16.427Z,1350
2017-09-24T06:11:47.271Z,1300
2017-09-24T06:12:17.333Z,1250
2017-09-24T06:12:48.176Z,1190
2017-09-24T06:13:18.160Z,1125
2017-09-24T06:13:49.097Z,1065
2017-09-24T06:14:19.152Z,1007
2017-09-24T06:14:49.970Z,960
2017-09-24T06:15:19.959Z,928
2017-09-24T06:15:50.857Z,898
2017-09-24T06:16:20.914Z,870
2017-09-24T06:16:51.783Z,838
2017-09-24T06:17:21.820Z,802
2017-09-24T06:17:52.699Z,767
2017-09-24T06:18:22.713Z,737
2017-09-24T06:18:53.569Z,725
2017-09-24T06:19:23.624Z,733
2017-09-24T06:19:54.484Z,758
2017-09-24T06:20:24.445Z,782
2017-09-24T06:20:55.382Z,802
2017-09-24T06:21:25.407Z,815
2017-09-24T06:22:26.278Z,802
2017-09-24T06:22:57.116Z,793
2017-09-24T06:23:27.199Z,785
2017-09-24T06:24:28.102Z,790
2017-09-24T06:24:58.953Z,800
2017-09-24T06:25:28.946Z,817
2017-09-24T06:25:59.954Z,845
2017-09-24T06:26:29.903Z,870
2017-09-24T06:27:00.722Z,902
2017-09-24T06:27:30.821Z,947
2017-09-24T06:28:01.668Z,990
2017-09-24T06:28:31.682Z,1028
2017-09-24T06:29:02.568Z,1063
2017-09-24T06:29:32.600Z,1080
2017-09-24T06:30:03.496Z,1093
2017-09-24T06:30:33.527Z,1078
2017-09-24T06:31:04.453Z,1035
2017-09-24T06:31:34.392Z,977
2017-09-24T06:32:05.278Z,932
2017-09-24T06:32:35.247Z,905
2017-09-24T06:33:06.198Z,892
2017-09-24T06:33:36.149Z,877
2017-09-24T06:34:07.098Z,870
2017-09-24T06:35:07.977Z,875
2017-09-24T06:35:37.954Z,872
2017-09-24T06:36:09.014Z,868
2017-09-24T06:36:38.892Z,863
2017-09-24T06:37:09.809Z,857
2017-09-24T06:37:39.758Z,855
2017-09-24T06:38:10.652Z,853
2017-09-24T06:38:40.656Z,860
2017-09-24T06:39:11.589Z,883
2017-09-24T06:39:41.626Z,908
2017-09-24T06:40:12.469Z,935
2017-09-24T06:40:42.530Z,988
2017-09-24T06:41:13.447Z,1097
2017-09-24T06:41:43.356Z,1220
2017-09-24T06:42:14.270Z,1345
2017-09-24T06:42:44.308Z,1463
2017-09-24T06:43:15.161Z,1555
2017-09-24T06:43:45.234Z,1615
2017-09-24T06:44:16.073Z,1667
2017-09-24T06:44:46.109Z,1723
2017-09-24T06:45:16.915Z,1783
2017-09-24T06:45:46.946Z,1847
2017-09-24T06:46:17.903Z,1922
2017-09-24T06:46:47.882Z,2000
2017-09-24T06:47:18.770Z,2060
2017-09-24T06:47:48.790Z,2095
2017-09-24T06:48:19.619Z,2117
2017-09-24T06:48:49.649Z,2098
2017-09-24T06:49:20.514Z,2055
2017-09-24T06:49:50.576Z,2010
2017-09-24T06:50:21.908Z,1955
2017-09-24T06:50:51.488Z,1888
2017-09-24T06:51:22.358Z,1805
2017-09-24T06:51:52.361Z,1735
2017-09-24T06:52:23.204Z,1675
2017-09-24T06:52:53.256Z,1635
2017-09-24T06:53:24.169Z,1612
2017-09-24T06:53:54.151Z,1605
2017-09-24T06:54:25.032Z,1610
2017-09-24T06:54:55.070Z,1607
2017-09-24T06:55:25.881Z,1592
2017-09-24T06:55:55.942Z,1560
2017-09-24T06:56:26.860Z,1505
2017-09-24T06:56:56.837Z,1453
2017-09-24T06:57:27.753Z,1403
2017-09-24T06:57:57.752Z,1345
2017-09-24T06:58:28.610Z,1295
2017-09-24T06:58:58.682Z,1245
2017-09-24T06:59:29.548Z,1230
2017-09-24T06:59:59.511Z,1225
2017-09-24T07:00:30.412Z,1217
2017-09-24T07:02:01.422Z,1223
2017-09-24T07:02:32.181Z,1245
2017-09-24T07:03:02.205Z,1273
2017-09-24T07:03:33.143Z,1252
2017-09-24T07:04:03.135Z,1198
2017-09-24T07:04:34.027Z,1145
2017-09-24T07:05:04.099Z,1123
2017-09-24T07:05:34.901Z,1142
2017-09-24T07:06:04.914Z,1198
2017-09-24T07:06:35.784Z,1255
2017-09-24T07:07:05.917Z,1250
2017-09-24T07:07:36.554Z,1177
2017-09-24T07:08:06.596Z,1185
2017-09-24T07:08:37.457Z,1262
2017-09-24T07:09:07.462Z,1400
2017-09-24T07:09:38.292Z,1573
2017-09-24T07:10:08.386Z,1708
2017-09-24T07:10:39.269Z,1798
2017-09-24T07:11:09.282Z,1840
2017-09-24T07:11:40.153Z,1860
2017-09-24T07:12:10.181Z,1883
2017-09-24T07:12:41.013Z,1920
2017-09-24T07:13:11.026Z,1965
2017-09-24T07:13:41.965Z,1997
2017-09-24T07:14:11.982Z,1995
2017-09-24T07:14:42.820Z,1940
2017-09-24T07:15:12.896Z,1845
2017-09-24T07:15:43.721Z,1817
2017-09-24T07:16:13.723Z,1952
2017-09-24T07:16:44.629Z,2115
2017-09-24T07:17:14.726Z,2200
2017-09-24T07:17:45.547Z,2240
2017-09-24T07:18:15.545Z,2300
2017-09-24T07:18:46.455Z,2345
2017-09-24T07:19:16.454Z,2353
2017-09-24T07:19:47.296Z,2370
2017-09-24T07:20:17.382Z,2420
2017-09-24T07:20:48.243Z,2462
2017-09-24T07:21:18.262Z,2483
2017-09-24T07:21:49.133Z,2503
2017-09-24T07:22:19.160Z,2572
2017-09-24T07:22:49.980Z,2603
2017-09-24T07:23:20.005Z,2567
2017-09-24T07:23:50.945Z,2552
2017-09-24T07:24:20.943Z,2548
2017-09-24T07:24:51.801Z,2528
2017-09-24T07:25:21.829Z,2500
2017-09-24T07:25:52.724Z,2477
2017-09-24T07:26:22.791Z,2480
2017-09-24T07:26:53.621Z,2503
2017-09-24T07:27:23.659Z,2543
2017-09-24T07:27:54.504Z,2610
2017-09-24T07:28:24.567Z,2685
2017-09-24T07:28:55.424Z,2773
2017-09-24T07:29:25.448Z,2867
2017-09-24T07:29:56.259Z,2965
2017-09-24T07:30:26.350Z,3052
2017-09-24T07:30:57.482Z,3128
2017-09-24T07:31:27.248Z,3178
2017-09-24T07:31:58.100Z,3210
2017-09-24T07:32:28.144Z,3202
2017-09-24T07:32:58.996Z,3148
2017-09-24T07:33:28.999Z,3050
2017-09-24T07:33:59.872Z,2935
2017-09-24T07:34:29.884Z,2840
2017-09-24T07:35:00.758Z,2758
2017-09-24T07:35:30.789Z,2693
2017-09-24T07:36:01.741Z,2668
2017-09-24T07:36:31.714Z,2683
2017-09-24T07:37:02.580Z,2708
2017-09-24T07:37:32.605Z,2722
2017-09-24T07:38:03.493Z,2735
2017-09-24T07:38:33.534Z,2745
2017-09-24T07:39:04.417Z,2747
2017-09-24T07:39:34.419Z,2758
2017-09-24T07:40:05.294Z,2782
2017-09-24T07:40:35.405Z,2805
2017-09-24T07:41:06.225Z,2822
2017-09-24T07:41:36.247Z,2833
2017-09-24T07:42:07.049Z,2837
2017-09-24T07:42:37.130Z,2852
2017-09-24T07:43:07.939Z,2860
2017-09-24T07:43:37.970Z,2880
2017-09-24T07:44:08.899Z,2915
2017-09-24T07:44:38.895Z,2978
2017-09-24T07:45:09.811Z,3060
2017-09-24T07:45:39.812Z,3170
2017-09-24T07:46:10.688Z,3270
2017-09-24T07:46:40.710Z,3360
2017-09-24T07:47:11.580Z,3433
2017-09-24T07:47:41.642Z,3487
2017-09-24T07:48:12.510Z,3538
2017-09-24T07:48:42.524Z,3592
2017-09-24T07:49:13.387Z,3660
2017-09-24T07:49:43.446Z,3742
2017-09-24T07:50:14.305Z,3830
2017-09-24T07:50:44.274Z,3905
2017-09-24T07:51:15.199Z,3967
2017-09-24T07:51:45.179Z,4000
2017-09-24T07:52:16.074Z,4020
2017-09-24T07:52:46.105Z,4030
2017-09-24T07:53:16.995Z,4043
2017-09-24T07:53:46.966Z,4048
2017-09-24T07:54:17.878Z,4063
2017-09-24T07:54:47.904Z,4030
2017-09-24T07:55:18.781Z,4005
2017-09-24T07:55:48.806Z,3958
2017-09-24T07:56:19.697Z,3878
2017-09-24T07:56:49.659Z,3790
2017-09-24T07:57:20.530Z,3680
2017-09-24T07:57:50.580Z,3615
2017-09-24T07:58:21.505Z,3575
2017-09-24T07:58:51.472Z,3553
2017-09-24T07:59:22.394Z,3525
2017-09-24T07:59:52.408Z,3515
2017-09-24T08:00:23.218Z,3482
2017-09-24T08:00:53.242Z,3460
2017-09-24T08:01:24.225Z,3448
2017-09-24T08:02:25.050Z,3470
2017-09-24T08:02:55.050Z,3493
2017-09-24T08:03:25.912Z,3520
2017-09-24T08:03:55.946Z,3563
2017-09-24T08:04:26.882Z,3635
2017-09-24T08:04:56.888Z,3670
2017-09-24T08:05:27.740Z,3615
2017-09-24T08:05:57.791Z,3503
2017-09-24T08:06:28.672Z,3422
2017-09-24T08:06:58.654Z,3302
2017-09-24T08:07:29.551Z,3197
2017-09-24T08:07:59.553Z,3362
2017-09-24T08:08:30.415Z,3553
2017-09-24T08:09:00.568Z,3512
2017-09-24T08:09:31.376Z,3505
2017-09-24T08:10:01.373Z,3542
2017-09-24T08:10:32.253Z,3592
2017-09-24T08:11:02.310Z,3577
2017-09-24T08:11:33.254Z,3587
2017-09-24T08:12:03.164Z,3615
2017-09-24T08:12:34.096Z,3575
2017-09-24T08:13:04.072Z,3540
2017-09-24T08:13:34.953Z,3583
2017-09-24T08:14:04.970Z,3620
2017-09-24T08:14:35.888Z,3637
2017-09-24T08:15:05.873Z,3668
2017-09-24T08:15:36.850Z,3692
2017-09-24T08:16:06.873Z,3662
2017-09-24T08:16:37.736Z,3637
2017-09-24T08:17:07.729Z,3643
2017-09-24T08:17:38.641Z,3628
2017-09-24T08:18:08.642Z,3580
2017-09-24T08:18:39.523Z,3565
2017-09-24T08:19:09.544Z,3585
2017-09-24T08:19:40.370Z,3615
2017-09-24T08:20:10.453Z,3632
2017-09-24T08:20:41.332Z,3653
2017-09-24T08:21:11.337Z,3645
2017-09-24T08:21:42.352Z,3592
2017-09-24T08:22:12.251Z,3467
2017-09-24T08:22:43.152Z,3355
2017-09-24T08:23:13.134Z,3257
2017-09-24T08:23:43.963Z,3208
2017-09-24T08:24:44.864Z,3220
2017-09-24T08:25:14.928Z,3240
2017-09-24T08:25:45.802Z,3322
2017-09-24T08:26:15.842Z,3388
2017-09-24T08:26:46.728Z,3458
2017-09-24T08:27:16.719Z,3437
2017-09-24T08:27:47.622Z,3433
2017-09-24T08:28:17.634Z,3390
2017-09-24T08:28:48.476Z,3278
2017-09-24T08:29:18.528Z,3145
2017-09-24T08:29:49.417Z,2983
2017-09-24T08:30:19.422Z,2840
2017-09-24T08:30:50.305Z,2648
2017-09-24T08:31:20.289Z,2420
2017-09-24T08:31:51.268Z,2357
2017-09-24T08:32:21.214Z,2400
2017-09-24T08:32:52.116Z,2507
2017-09-24T08:33:22.121Z,2690
2017-09-24T08:33:52.973Z,2863
2017-09-24T08:34:23.037Z,2923
2017-09-24T08:34:53.886Z,2863
2017-09-24T08:35:23.928Z,2717
2017-09-24T08:35:54.805Z,2500
2017-09-24T08:36:24.846Z,2315
2017-09-24T08:36:55.936Z,2228
2017-09-24T08:37:25.698Z,2132
2017-09-24T08:37:56.614Z,1955
2017-09-24T08:38:26.662Z,1808
2017-09-24T08:38:57.499Z,1712
2017-09-24T08:39:27.535Z,1705
2017-09-24T08:39:58.397Z,1768
2017-09-24T08:40:28.381Z,1883
2017-09-24T08:40:59.323Z,2005
2017-09-24T08:41:29.312Z,2125
2017-09-24T08:42:00.228Z,2233
2017-09-24T08:42:30.243Z,2297
2017-09-24T08:43:01.112Z,2318
2017-09-24T08:43:31.121Z,2415
2017-09-24T08:44:02.029Z,2653
2017-09-24T08:44:31.972Z,2770
2017-09-24T08:45:02.861Z,2865
2017-09-24T08:45:32.968Z,3058
2017-09-24T08:46:03.781Z,3302
2017-09-24T08:46:33.820Z,3680
2017-09-24T08:47:04.679Z,4027
2017-09-24T08:47:34.699Z,3960
2017-09-24T08:48:05.592Z,3560
2017-09-24T08:48:35.659Z,3130
2017-09-24T08:49:06.439Z,2900
2017-09-24T08:49:36.521Z,2960
2017-09-24T08:50:07.349Z,3020
2017-09-24T08:50:37.418Z,3058
2017-09-24T08:51:08.299Z,3077
2017-09-24T08:51:38.299Z,2955
2017-09-24T08:52:09.248Z,2867
2017-09-24T08:52:39.172Z,2767
2017-09-24T08:53:10.066Z,2717
2017-09-24T08:53:40.107Z,2695
2017-09-24T08:54:10.940Z,2690
2017-09-24T08:54:40.977Z,2677
2017-09-24T08:55:11.850Z,2665
2017-09-24T08:55:41.883Z,2653
2017-09-24T08:56:12.775Z,2640
2017-09-24T08:56:42.830Z,2642
2017-09-24T08:57:13.679Z,2597
2017-09-24T08:57:43.668Z,2570
2017-09-24T08:58:14.583Z,2510
2017-09-24T08:58:44.614Z,2392
2017-09-24T08:59:15.451Z,2297
2017-09-24T08:59:45.495Z,2305
2017-09-24T09:00:16.355Z,2323
2017-09-24T09:00:46.413Z,2297
2017-09-24T09:01:17.263Z,2240
2017-09-24T09:01:47.286Z,2285
2017-09-24T09:02:18.179Z,2380
2017-09-24T09:02:48.275Z,2560
2017-09-24T09:03:19.106Z,2940
2017-09-24T09:03:49.177Z,3467
2017-09-24T09:04:19.979Z,3862
2017-09-24T09:04:50.007Z,4018
2017-09-24T09:05:20.952Z,4048
2017-09-24T09:05:50.959Z,4040
2017-09-24T09:06:21.826Z,4003
2017-09-24T09:06:51.882Z,4005
2017-09-24T09:07:22.704Z,4095
2017-09-24T09:07:52.710Z,3962
2017-09-24T09:08:23.615Z,3845
2017-09-24T09:08:53.681Z,3883
2017-09-24T09:09:24.540Z,4048
2017-09-24T09:09:54.516Z,4258
2017-09-24T09:10:25.425Z,4603
2017-09-24T09:10:55.442Z,4905
2017-09-24T09:11:26.320Z,5165
2017-09-24T09:11:56.390Z,5360
2017-09-24T09:12:27.244Z,5447
2017-09-24T09:12:57.217Z,5550
2017-09-24T09:13:28.149Z,5728
2017-09-24T09:13:58.115Z,5860
2017-09-24T09:14:28.983Z,5798
2017-09-24T09:14:59.018Z,5647
2017-09-24T09:15:29.931Z,5810
2017-09-24T09:15:59.953Z,6020
2017-09-24T09:16:30.826Z,6295
2017-09-24T09:17:00.829Z,6510
2017-09-24T09:17:31.712Z,6463
2017-09-24T09:18:01.751Z,6270
2017-09-24T09:18:32.666Z,6178
2017-09-24T09:19:02.650Z,6442
2017-09-24T09:19:33.485Z,6782
2017-09-24T09:20:03.560Z,6827
2017-09-24T09:20:34.456Z,6590
2017-09-24T09:21:04.440Z,6365
2017-09-24T09:21:35.313Z,6275
2017-09-24T09:22:05.330Z,6225
2017-09-24T09:22:36.300Z,6257
2017-09-24T09:23:06.281Z,6113
2017-09-24T09:23:37.142Z,5760
2017-09-24T09:24:07.186Z,5597
2017-09-24T09:24:37.988Z,5575
2017-09-24T09:25:08.007Z,5578
2017-09-24T09:25:38.914Z,5672
2017-09-24T09:26:08.955Z,5570
2017-09-24T09:26:39.841Z,5492
2017-09-24T09:27:09.871Z,5500
2017-09-24T09:27:40.748Z,5795
2017-09-24T09:28:10.757Z,6520
2017-09-24T09:28:41.595Z,7078
2017-09-24T09:29:11.671Z,7558
2017-09-24T09:29:42.577Z,7948
2017-09-24T09:30:12.618Z,8182
2017-09-24T09:30:43.450Z,8480
2017-09-24T09:31:13.440Z,8875
2017-09-24T09:31:44.363Z,8915
2017-09-24T09:32:14.387Z,8968
2017-09-24T09:32:45.313Z,8880
2017-09-24T09:33:15.265Z,9067
2017-09-24T09:33:46.180Z,9370
2017-09-24T09:34:16.204Z,9143
2017-09-24T09:34:47.010Z,8660
2017-09-24T09:35:17.027Z,8320
2017-09-24T09:35:47.977Z,8153
2017-09-24T09:36:17.989Z,7862
2017-09-24T09:36:48.857Z,7543
2017-09-24T09:37:18.907Z,7232
2017-09-24T09:37:49.973Z,6790
2017-09-24T09:38:19.750Z,6433
2017-09-24T09:38:50.663Z,6435
2017-09-24T09:39:20.702Z,6248
2017-09-24T09:39:51.554Z,5845
2017-09-24T09:40:21.573Z,5345
2017-09-24T09:40:52.456Z,4820
2017-09-24T09:41:22.447Z,4405
2017-09-24T09:41:53.339Z,4172
2017-09-24T09:42:23.460Z,3905
2017-09-24T09:42:54.497Z,3742
2017-09-24T09:43:24.263Z,3707
2017-09-24T09:43:55.186Z,3625
2017-09-24T09:44:25.179Z,3503
2017-09-24T09:44:55.992Z,3472
2017-09-24T09:45:26.034Z,3377
2017-09-24T09:45:56.974Z,3405
2017-09-24T09:46:27.028Z,3500
2017-09-24T09:46:57.857Z,3535
2017-09-24T09:47:27.878Z,3610
2017-09-24T09:47:58.792Z,3565
2017-09-24T09:48:28.763Z,3577
2017-09-24T09:48:59.592Z,3725
2017-09-24T09:49:29.682Z,3850
2017-09-24T09:50:00.688Z,3750
2017-09-24T09:50:30.571Z,3470
2017-09-24T09:51:01.416Z,3200
2017-09-24T09:51:31.430Z,3055
2017-09-24T09:52:02.358Z,3167
2017-09-24T09:52:32.373Z,3472
2017-09-24T09:53:03.301Z,3750
2017-09-24T09:53:33.292Z,4045
2017-09-24T09:54:04.149Z,4270
2017-09-24T09:54:34.107Z,4397
2017-09-24T09:55:04.981Z,4442
2017-09-24T09:55:35.022Z,4470
2017-09-24T09:56:05.916Z,4477
2017-09-24T09:56:35.999Z,4545
2017-09-24T09:57:06.817Z,4640
2017-09-24T09:57:36.831Z,4663
2017-09-24T09:58:07.745Z,4723
2017-09-24T09:58:37.739Z,4705
2017-09-24T09:59:08.638Z,4845
2017-09-24T09:59:38.600Z,4958
2017-09-24T10:00:09.502Z,4933
2017-09-24T10:00:39.567Z,4697
2017-09-24T10:01:10.430Z,4510
2017-09-24T10:01:40.398Z,4480
2017-09-24T10:02:11.277Z,4580
2017-09-24T10:02:41.377Z,4605
2017-09-24T10:03:12.277Z,4667
2017-09-24T10:03:42.225Z,4748
2017-09-24T10:04:13.105Z,4850
2017-09-24T10:04:43.156Z,4860
2017-09-24T10:05:14.002Z,4807
2017-09-24T10:05:44.003Z,4972
2017-09-24T10:06:14.857Z,5055
2017-09-24T10:06:44.943Z,4952
2017-09-24T10:07:15.830Z,4798
2017-09-24T10:07:45.837Z,4802
2017-09-24T10:08:16.727Z,4768
2017-09-24T10:08:46.738Z,4640
2017-09-24T10:09:17.562Z,4583
2017-09-24T10:09:47.668Z,4500
2017-09-24T10:10:18.501Z,4543
2017-09-24T10:10:48.510Z,4783
2017-09-24T10:11:19.440Z,4855
2017-09-24T10:11:49.408Z,4753
2017-09-24T10:12:20.257Z,4545
2017-09-24T10:12:50.318Z,4448
2017-09-24T10:13:21.303Z,4298
2017-09-24T10:13:51.208Z,4230
2017-09-24T10:14:22.101Z,4220
2017-09-24T10:14:52.136Z,4080
2017-09-24T10:15:22.946Z,3868
2017-09-24T10:15:52.998Z,3742
2017-09-24T10:16:23.906Z,3737
2017-09-24T10:16:53.910Z,3718
2017-09-24T10:17:24.810Z,3630
2017-09-24T10:17:54.892Z,3577
2017-09-24T10:18:25.719Z,3455
2017-09-24T10:18:55.693Z,3398
2017-09-24T10:19:26.626Z,3535
2017-09-24T10:19:56.630Z,3718
2017-09-24T10:20:27.486Z,3625
2017-09-24T10:20:57.553Z,3535
2017-09-24T10:21:28.414Z,3570
2017-09-24T10:21:58.436Z,3640
2017-09-24T10:22:29.304Z,3600
2017-09-24T10:22:59.305Z,3523
2017-09-24T10:23:30.272Z,3610
2017-09-24T10:24:00.201Z,3632
2017-09-24T10:24:31.140Z,3575
2017-09-24T10:25:01.099Z,3360
2017-09-24T10:25:31.992Z,3182
2017-09-24T10:26:01.998Z,3137
2017-09-24T10:26:32.922Z,3043
2017-09-24T10:27:02.967Z,2963
2017-09-24T10:27:33.806Z,2942
2017-09-24T10:28:03.833Z,2773
2017-09-24T10:28:34.771Z,2503
2017-09-24T10:29:04.710Z,2470
2017-09-24T10:29:35.597Z,2465
2017-09-24T10:30:05.670Z,2368
2017-09-24T10:30:36.488Z,2400
2017-09-24T10:31:06.515Z,2398
2017-09-24T10:31:37.465Z,2278
2017-09-24T10:32:07.455Z,2132
2017-09-24T10:32:38.387Z,2027
2017-09-24T10:33:08.386Z,2025
2017-09-24T10:35:41.180Z,2207
2017-09-24T10:36:11.134Z,2250
2017-09-24T10:36:41.992Z,2282
2017-09-24T10:37:12.100Z,2205
2017-09-24T10:37:42.951Z,2128
2017-09-24T10:38:12.887Z,2173
2017-09-24T10:38:43.756Z,2385
2017-09-24T10:39:13.864Z,2620
2017-09-24T10:39:44.705Z,2798
2017-09-24T10:40:14.773Z,2965
2017-09-24T10:40:45.556Z,3095
2017-09-24T10:41:15.694Z,3262
2017-09-24T10:41:46.535Z,3493
2017-09-24T10:42:16.559Z,3665
2017-09-24T10:42:47.373Z,3833
2017-09-24T10:43:17.436Z,4160
2017-09-24T10:43:48.274Z,4140
2017-09-24T10:44:19.806Z,3995
2017-09-24T10:44:49.202Z,3962
2017-09-24T10:45:19.157Z,4225
2017-09-24T10:45:50.037Z,4840
2017-09-24T10:46:20.073Z,5195
2017-09-24T10:46:51.015Z,5135
2017-09-24T10:47:21.045Z,4967
2017-09-24T10:47:51.885Z,5100
2017-09-24T10:48:21.922Z,5400
2017-09-24T10:48:52.753Z,5293
2017-09-24T10:49:22.870Z,5267
2017-09-24T10:49:53.686Z,5062
2017-09-24T10:50:23.670Z,4633
2017-09-24T10:50:54.606Z,4532
2017-09-24T10:51:24.619Z,4528
2017-09-24T10:51:55.487Z,4933
2017-09-24T10:52:25.478Z,5375
2017-09-24T10:52:56.385Z,5595
2017-09-24T10:53:26.450Z,5663
2017-09-24T10:53:57.276Z,5865
2017-09-24T10:54:27.329Z,6240
2017-09-24T10:54:58.193Z,6283
2017-09-24T10:55:28.188Z,6155
2017-09-24T10:55:59.029Z,6560
2017-09-24T11:00:19.773Z,5218
2017-09-24T11:00:49.811Z,4800
2017-09-24T11:01:20.755Z,4530
2017-09-24T11:01:50.699Z,4320
2017-09-24T11:02:21.600Z,4333
2017-09-24T11:02:51.652Z,4615
2017-09-24T11:03:22.503Z,4765
2017-09-24T11:03:52.562Z,4870
2017-09-24T11:04:23.414Z,4942
2017-09-24T11:04:53.528Z,5023
2017-09-24T11:05:24.406Z,4960
2017-09-24T11:05:54.405Z,4793
2017-09-24T11:06:25.303Z,4597
2017-09-24T11:06:55.314Z,4528
2017-09-24T11:07:26.207Z,4690
2017-09-24T11:07:56.222Z,5053
2017-09-24T11:08:27.097Z,5272
2017-09-24T11:08:57.109Z,5288
2017-09-24T11:09:28.010Z,5488
2017-09-24T11:09:58.007Z,5687
2017-09-24T11:10:28.877Z,5663
2017-09-24T11:10:58.919Z,5893
2017-09-24T11:11:29.842Z,6425
2017-09-24T11:11:59.843Z,6610
2017-09-24T11:12:30.733Z,6727
2017-09-24T11:13:00.710Z,6645
2017-09-24T11:13:31.633Z,6485
2017-09-24T11:14:01.635Z,6187
2017-09-24T11:14:32.627Z,6223
2017-09-24T11:15:02.579Z,5950
2017-09-24T11:15:33.431Z,5717
2017-09-24T11:16:03.475Z,6008
2017-09-24T11:16:34.314Z,6287
2017-09-24T11:17:04.344Z,6410
2017-09-24T11:17:35.261Z,6767
2017-09-24T11:18:05.308Z,6905
2017-09-24T11:18:36.302Z,6615
2017-09-24T11:19:06.301Z,6133
2017-09-24T11:19:37.183Z,5680
2017-09-24T11:20:07.186Z,5405
2017-09-24T11:20:38.029Z,5342
2017-09-24T11:21:08.047Z,5145
2017-09-24T11:21:38.979Z,4785
2017-09-24T11:22:09.054Z,4490
2017-09-24T11:22:39.918Z,4472
2017-09-24T11:23:09.912Z,4738
2017-09-24T11:23:40.897Z,4883
2017-09-24T11:24:10.860Z,4830
2017-09-24T11:24:41.791Z,4775
2017-09-24T11:25:11.822Z,4738
2017-09-24T11:25:42.710Z,4600
2017-09-24T11:26:12.749Z,4438
2017-09-24T11:26:43.577Z,4305
2017-09-24T11:27:13.596Z,4192
2017-09-24T11:27:44.531Z,4095
2017-09-24T11:28:14.573Z,4222
2017-09-24T11:28:45.542Z,4217
2017-09-24T11:29:15.473Z,4052
2017-09-24T11:29:46.442Z,3930
2017-09-24T11:30:16.401Z,3898
2017-09-24T11:30:47.273Z,4000
2017-09-24T11:31:17.284Z,4115
2017-09-24T11:31:48.181Z,4245
2017-09-24T11:32:18.248Z,4430
2017-09-24T11:32:49.102Z,4550
2017-09-24T11:33:19.166Z,4655
2017-09-24T11:33:50.049Z,4800
2017-09-24T11:34:50.966Z,4695
2017-09-24T11:35:20.979Z,4595
2017-09-24T11:35:51.851Z,4495
2017-09-24T11:36:21.884Z,4367
2017-09-24T11:36:52.764Z,4322
2017-09-24T11:37:22.785Z,4318
2017-09-24T11:37:53.674Z,4378
2017-09-24T11:38:23.713Z,4448
2017-09-24T11:38:54.630Z,4575
2017-09-24T11:39:24.553Z,4755
2017-09-24T11:39:55.491Z,4855
2017-09-24T11:40:25.496Z,4905
2017-09-24T11:40:56.396Z,5065
2017-09-24T11:41:26.393Z,5512
2017-09-24T11:41:57.315Z,5918
2017-09-24T11:42:27.283Z,6212
2017-09-24T11:42:58.205Z,6325
2017-09-24T11:43:28.245Z,6328
2017-09-24T11:43:59.121Z,6360
2017-09-24T11:44:29.101Z,6383
2017-09-24T11:45:00.132Z,6455
2017-09-24T11:45:30.019Z,6448
2017-09-24T11:46:00.919Z,6283
2017-09-24T11:46:31.043Z,6067
2017-09-24T11:47:01.829Z,5855
2017-09-24T11:47:31.881Z,5822
2017-09-24T11:48:02.783Z,5927
2017-09-24T11:48:32.812Z,6060
2017-09-24T11:49:03.734Z,6270
2017-09-24T11:49:33.741Z,6505
2017-09-24T11:50:04.581Z,6853
2017-09-24T11:50:34.626Z,7070
2017-09-24T11:51:05.476Z,7195
2017-09-24T11:51:35.473Z,7262
2017-09-24T11:52:06.381Z,7382
2017-09-24T11:52:36.393Z,7360
2017-09-24T11:53:07.365Z,7283
2017-09-24T11:53:37.361Z,7402
2017-09-24T11:54:08.308Z,7487
2017-09-24T11:54:38.245Z,7583
2017-09-24T11:55:09.221Z,8038
2017-09-24T11:55:39.196Z,8705
2017-09-24T11:56:10.083Z,9235